sensor_id;sensor_type;location;lat;lon;timestamp;pressure;altitude;pressure_sealevel;temperature;humidity
81125;BME280;72192;52.114;5.424;2024-02-26T00:01:31;100150.00;;;4.39;100.00
81125;BME280;72192;52.114;5.424;2024-02-26T00:04:02;100138.91;;;4.34;100.00
81125;BME280;72192;52.114;5.424;2024-02-26T00:06:30;100160.41;;;4.32;100.00
81125;BME280;72192;52.114;5.424;2024-02-26T00:08:58;100159.16;;;4.27;100.00
81125;BME280;72192;52.114;5.424;2024-02-26T00:11:29;100165.34;;;4.27;100.00
81125;BME280;72192;52.114;5.424;2024-02-26T00:14:01;100163.78;;;4.25;100.00
81125;BME280;72192;52.114;5.424;2024-02-26T00:16:30;100159.69;;;4.21;100.00
81125;BME280;72192;52.114;5.424;2024-02-26T00:19:00;100161.66;;;4.19;100.00
81125;BME280;72192;52.114;5.424;2024-02-26T00:21:28;100157.16;;;4.10;100.00
81125;BME280;72192;52.114;5.424;2024-02-26T00:23:55;100171.22;;;4.12;100.00
81125;BME280;72192;52.114;5.424;2024-02-26T00:26:26;100161.38;;;4.02;100.00
81125;BME280;72192;52.114;5.424;2024-02-26T00:28:53;100146.75;;;3.97;100.00
81125;BME280;72192;52.114;5.424;2024-02-26T00:31:20;100142.56;;;3.94;100.00
81125;BME280;72192;52.114;5.424;2024-02-26T00:33:47;100153.09;;;3.96;100.00
81125;BME280;72192;52.114;5.424;2024-02-26T00:36:17;100161.78;;;3.98;100.00
81125;BME280;72192;52.114;5.424;2024-02-26T00:38:45;100145.47;;;3.82;100.00
81125;BME280;72192;52.114;5.424;2024-02-26T00:41:18;100167.28;;;3.96;100.00
81125;BME280;72192;52.114;5.424;2024-02-26T00:43:46;100164.75;;;3.95;100.00
81125;BME280;72192;52.114;5.424;2024-02-26T00:46:14;100166.84;;;3.91;100.00
81125;BME280;72192;52.114;5.424;2024-02-26T00:48:45;100167.13;;;3.88;100.00
81125;BME280;72192;52.114;5.424;2024-02-26T00:51:12;100169.78;;;3.88;100.00
81125;BME280;72192;52.114;5.424;2024-02-26T00:53:43;100178.78;;;3.87;100.00
81125;BME280;72192;52.114;5.424;2024-02-26T00:56:10;100169.34;;;3.83;100.00
81125;BME280;72192;52.114;5.424;2024-02-26T00:58:37;100164.84;;;3.74;100.00
81125;BME280;72192;52.114;5.424;2024-02-26T01:01:04;100176.25;;;3.86;100.00
81125;BME280;72192;52.114;5.424;2024-02-26T01:03:31;100174.16;;;3.89;100.00
81125;BME280;72192;52.114;5.424;2024-02-26T01:05:58;100181.88;;;3.92;100.00
81125;BME280;72192;52.114;5.424;2024-02-26T01:08:29;100179.94;;;3.94;100.00
81125;BME280;72192;52.114;5.424;2024-02-26T01:10:55;100174.59;;;3.94;100.00
81125;BME280;72192;52.114;5.424;2024-02-26T01:13:23;100167.28;;;3.96;100.00
81125;BME280;72192;52.114;5.424;2024-02-26T01:15:53;100169.53;;;4.01;100.00
81125;BME280;72192;52.114;5.424;2024-02-26T01:18:20;100164.88;;;4.03;100.00
81125;BME280;72192;52.114;5.424;2024-02-26T01:20:47;100167.28;;;4.06;100.00
81125;BME280;72192;52.114;5.424;2024-02-26T01:23:14;100168.84;;;4.09;100.00
81125;BME280;72192;52.114;5.424;2024-02-26T01:25:41;100160.69;;;4.10;100.00
81125;BME280;72192;52.114;5.424;2024-02-26T01:28:09;100162.22;;;4.13;100.00
81125;BME280;72192;52.114;5.424;2024-02-26T01:30:36;100159.28;;;4.16;100.00
81125;BME280;72192;52.114;5.424;2024-02-26T01:33:06;100146.78;;;4.16;100.00
81125;BME280;72192;52.114;5.424;2024-02-26T01:35:33;100161.38;;;4.22;100.00
81125;BME280;72192;52.114;5.424;2024-02-26T01:38:00;100149.84;;;4.21;100.00
81125;BME280;72192;52.114;5.424;2024-02-26T01:40:27;100150.59;;;4.23;100.00
81125;BME280;72192;52.114;5.424;2024-02-26T01:42:55;100157.47;;;4.26;100.00
81125;BME280;72192;52.114;5.424;2024-02-26T01:45:22;100160.28;;;4.24;100.00
81125;BME280;72192;52.114;5.424;2024-02-26T01:47:52;100159.16;;;4.27;100.00
81125;BME280;72192;52.114;5.424;2024-02-26T01:50:20;100156.34;;;4.28;100.00
81125;BME280;72192;52.114;5.424;2024-02-26T01:52:51;100159.69;;;4.30;100.00
81125;BME280;72192;52.114;5.424;2024-02-26T01:55:20;100156.03;;;4.31;100.00
81125;BME280;72192;52.114;5.424;2024-02-26T01:57:51;100169.28;;;4.33;100.00
81125;BME280;72192;52.114;5.424;2024-02-26T02:00:20;100175.47;;;4.34;100.00
81125;BME280;72192;52.114;5.424;2024-02-26T02:02:51;100167.44;;;4.34;100.00
81125;BME280;72192;52.114;5.424;2024-02-26T02:05:19;100170.81;;;4.36;100.00
81125;BME280;72192;52.114;5.424;2024-02-26T02:07:47;100173.63;;;4.34;100.00
81125;BME280;72192;52.114;5.424;2024-02-26T02:10:17;100176.88;;;4.38;100.00
81125;BME280;72192;52.114;5.424;2024-02-26T02:12:50;100172.38;;;4.38;100.00
81125;BME280;72192;52.114;5.424;2024-02-26T02:15:17;100182.06;;;4.39;100.00
81125;BME280;72192;52.114;5.424;2024-02-26T02:17:46;100184.88;;;4.38;100.00
81125;BME280;72192;52.114;5.424;2024-02-26T02:20:16;100182.75;;;4.41;100.00
81125;BME280;72192;52.114;5.424;2024-02-26T02:22:45;100191.63;;;4.42;100.00
81125;BME280;72192;52.114;5.424;2024-02-26T02:25:13;100194.28;;;4.42;100.00
81125;BME280;72192;52.114;5.424;2024-02-26T02:27:41;100196.84;;;4.43;100.00
81125;BME280;72192;52.114;5.424;2024-02-26T02:30:10;100195.13;;;4.42;100.00
81125;BME280;72192;52.114;5.424;2024-02-26T02:32:40;100197.53;;;4.45;100.00
81125;BME280;72192;52.114;5.424;2024-02-26T02:35:09;100201.34;;;4.43;100.00
81125;BME280;72192;52.114;5.424;2024-02-26T02:37:36;100205.72;;;4.44;100.00
81125;BME280;72192;52.114;5.424;2024-02-26T02:40:05;100204.88;;;4.43;100.00
81125;BME280;72192;52.114;5.424;2024-02-26T02:42:32;100206.56;;;4.44;100.00
81125;BME280;72192;52.114;5.424;2024-02-26T02:44:59;100208.38;;;4.44;100.00
81125;BME280;72192;52.114;5.424;2024-02-26T02:47:27;100211.06;;;4.44;100.00
81125;BME280;72192;52.114;5.424;2024-02-26T02:50:01;100216.25;;;4.45;100.00
81125;BME280;72192;52.114;5.424;2024-02-26T02:52:28;100211.47;;;4.49;100.00
81125;BME280;72192;52.114;5.424;2024-02-26T02:54:55;100208.78;;;4.49;100.00
81125;BME280;72192;52.114;5.424;2024-02-26T02:57:22;100220.47;;;4.48;100.00
81125;BME280;72192;52.114;5.424;2024-02-26T02:59:49;100210.22;;;4.43;100.00
81125;BME280;72192;52.114;5.424;2024-02-26T03:02:21;100221.31;;;4.48;100.00
81125;BME280;72192;52.114;5.424;2024-02-26T03:04:47;100234.38;;;4.51;100.00
81125;BME280;72192;52.114;5.424;2024-02-26T03:07:15;100236.22;;;4.51;100.00
81125;BME280;72192;52.114;5.424;2024-02-26T03:09:42;100242.69;;;4.48;100.00
81125;BME280;72192;52.114;5.424;2024-02-26T03:12:09;100242.97;;;4.45;100.00
81125;BME280;72192;52.114;5.424;2024-02-26T03:14:36;100251.69;;;4.47;100.00
81125;BME280;72192;52.114;5.424;2024-02-26T03:17:04;100252.53;;;4.48;100.00
81125;BME280;72192;52.114;5.424;2024-02-26T03:19:31;100259.72;;;4.47;100.00
81125;BME280;72192;52.114;5.424;2024-02-26T03:21:58;100258.72;;;4.48;100.00
81125;BME280;72192;52.114;5.424;2024-02-26T03:24:26;100263.22;;;4.48;100.00
81125;BME280;72192;52.114;5.424;2024-02-26T03:26:55;100262.38;;;4.47;100.00
81125;BME280;72192;52.114;5.424;2024-02-26T03:29:22;100261.41;;;4.48;100.00
81125;BME280;72192;52.114;5.424;2024-02-26T03:31:51;100264.22;;;4.47;100.00
81125;BME280;72192;52.114;5.424;2024-02-26T03:34:18;100271.53;;;4.45;100.00
81125;BME280;72192;52.114;5.424;2024-02-26T03:36:47;100273.38;;;4.44;100.00
81125;BME280;72192;52.114;5.424;2024-02-26T03:39:13;100272.63;;;4.42;100.00
81125;BME280;72192;52.114;5.424;2024-02-26T03:41:40;100265.75;;;4.40;100.00
81125;BME280;72192;52.114;5.424;2024-02-26T03:44:08;100269.13;;;4.42;100.00
81125;BME280;72192;52.114;5.424;2024-02-26T03:46:35;100274.03;;;4.37;100.00
81125;BME280;72192;52.114;5.424;2024-02-26T03:49:02;100281.22;;;4.36;100.00
81125;BME280;72192;52.114;5.424;2024-02-26T03:51:29;100277.84;;;4.34;100.00
81125;BME280;72192;52.114;5.424;2024-02-26T03:53:58;100274.19;;;4.35;100.00
81125;BME280;72192;52.114;5.424;2024-02-26T03:56:26;100280.53;;;4.34;100.00
81125;BME280;72192;52.114;5.424;2024-02-26T03:58:54;100279.69;;;4.34;100.00
81125;BME280;72192;52.114;5.424;2024-02-26T04:01:21;100273.59;;;4.31;100.00
81125;BME280;72192;52.114;5.424;2024-02-26T04:03:48;100280.63;;;4.32;100.00
81125;BME280;72192;52.114;5.424;2024-02-26T04:06:15;100285.13;;;4.32;100.00
81125;BME280;72192;52.114;5.424;2024-02-26T04:08:44;100280.63;;;4.32;100.00
81125;BME280;72192;52.114;5.424;2024-02-26T04:11:12;100280.63;;;4.32;100.00
81125;BME280;72192;52.114;5.424;2024-02-26T04:13:39;100285.97;;;4.32;100.00
81125;BME280;72192;52.114;5.424;2024-02-26T04:16:06;100280.63;;;4.32;100.00
81125;BME280;72192;52.114;5.424;2024-02-26T04:18:33;100286.13;;;4.31;100.00
81125;BME280;72192;52.114;5.424;2024-02-26T04:21:00;100291.31;;;4.32;100.00
81125;BME280;72192;52.114;5.424;2024-02-26T04:23:27;100288.66;;;4.32;100.00
81125;BME280;72192;52.114;5.424;2024-02-26T04:25:58;100299.75;;;4.28;100.00
81125;BME280;72192;52.114;5.424;2024-02-26T04:28:25;100299.34;;;4.32;100.00
81125;BME280;72192;52.114;5.424;2024-02-26T04:30:53;100302.00;;;4.32;100.00
81125;BME280;72192;52.114;5.424;2024-02-26T04:33:20;100297.41;;;4.35;100.00
81125;BME280;72192;52.114;5.424;2024-02-26T04:35:47;100302.59;;;4.36;100.00
81125;BME280;72192;52.114;5.424;2024-02-26T04:38:16;100296.94;;;4.29;100.00
81125;BME280;72192;52.114;5.424;2024-02-26T04:40:43;100309.63;;;4.37;100.00
81125;BME280;72192;52.114;5.424;2024-02-26T04:43:10;100307.81;;;4.38;100.00
81125;BME280;72192;52.114;5.424;2024-02-26T04:45:37;100313.00;;;4.39;100.00
81125;BME280;72192;52.114;5.424;2024-02-26T04:48:04;100318.06;;;4.42;100.00
81125;BME280;72192;52.114;5.424;2024-02-26T04:50:33;100311.03;;;4.41;100.00
81125;BME280;72192;52.114;5.424;2024-02-26T04:53:00;100320.88;;;4.41;100.00
81125;BME280;72192;52.114;5.424;2024-02-26T04:55:27;100313.59;;;4.43;100.00
81125;BME280;72192;52.114;5.424;2024-02-26T04:57:55;100307.09;;;4.36;100.00
81125;BME280;72192;52.114;5.424;2024-02-26T05:00:21;100310.91;;;4.43;100.00
81125;BME280;72192;52.114;5.424;2024-02-26T05:02:54;100300.78;;;4.37;100.00
81125;BME280;72192;52.114;5.424;2024-02-26T05:05:21;100305.44;;;4.44;100.00
81125;BME280;72192;52.114;5.424;2024-02-26T05:07:48;100318.38;;;4.49;100.00
81125;BME280;72192;52.114;5.424;2024-02-26T05:10:21;100330.03;;;4.48;100.00
81125;BME280;72192;52.114;5.424;2024-02-26T05:12:48;100323.56;;;4.50;100.00
81125;BME280;72192;52.114;5.424;2024-02-26T05:15:15;100321.75;;;4.51;100.00
81125;BME280;72192;52.114;5.424;2024-02-26T05:17:46;100317.38;;;4.50;100.00
81125;BME280;72192;52.114;5.424;2024-02-26T05:20:13;100330.59;;;4.51;100.00
81125;BME280;72192;52.114;5.424;2024-02-26T05:22:40;100336.69;;;4.53;100.00
81125;BME280;72192;52.114;5.424;2024-02-26T05:25:08;100325.69;;;4.47;100.00
81125;BME280;72192;52.114;5.424;2024-02-26T05:27:36;100330.59;;;4.51;100.00
81125;BME280;72192;52.114;5.424;2024-02-26T05:30:07;100327.94;;;4.51;100.00
81125;BME280;72192;52.114;5.424;2024-02-26T05:32:34;100339.34;;;4.53;100.00
81125;BME280;72192;52.114;5.424;2024-02-26T05:35:02;100341.19;;;4.53;100.00
81125;BME280;72192;52.114;5.424;2024-02-26T05:37:32;100337.66;;;4.52;100.00
81125;BME280;72192;52.114;5.424;2024-02-26T05:39:59;100331.59;;;4.50;100.00
81125;BME280;72192;52.114;5.424;2024-02-26T05:42:26;100337.91;;;4.49;100.00
81125;BME280;72192;52.114;5.424;2024-02-26T05:44:53;100338.63;;;4.51;100.00
81125;BME280;72192;52.114;5.424;2024-02-26T05:47:20;100348.63;;;4.49;100.00
81125;BME280;72192;52.114;5.424;2024-02-26T05:49:47;100357.47;;;4.50;100.00
81125;BME280;72192;52.114;5.424;2024-02-26T05:52:17;100353.97;;;4.49;100.00
81125;BME280;72192;52.114;5.424;2024-02-26T05:54:44;100356.63;;;4.49;100.00
81125;BME280;72192;52.114;5.424;2024-02-26T05:57:11;100360.28;;;4.48;100.00
81125;BME280;72192;52.114;5.424;2024-02-26T05:59:43;100366.63;;;4.47;100.00
81125;BME280;72192;52.114;5.424;2024-02-26T06:02:27;100366.91;;;4.44;100.00
81125;BME280;72192;52.114;5.424;2024-02-26T06:04:53;100371.13;;;4.47;100.00
81125;BME280;72192;52.114;5.424;2024-02-26T06:07:21;100368.31;;;4.48;100.00
81125;BME280;72192;52.114;5.424;2024-02-26T06:09:49;100371.81;;;4.49;100.00
81125;BME280;72192;52.114;5.424;2024-02-26T06:12:16;100365.91;;;4.45;100.00
81125;BME280;72192;52.114;5.424;2024-02-26T06:14:43;100376.47;;;4.47;100.00
81125;BME280;72192;52.114;5.424;2024-02-26T06:17:12;100382.78;;;4.46;100.00
81125;BME280;72192;52.114;5.424;2024-02-26T06:19:41;100386.31;;;4.46;100.00
81125;BME280;72192;52.114;5.424;2024-02-26T06:22:08;100385.31;;;4.47;100.00
81125;BME280;72192;52.114;5.424;2024-02-26T06:24:35;100391.38;;;4.49;100.00
81125;BME280;72192;52.114;5.424;2024-02-26T06:27:03;100392.91;;;4.52;100.00
81125;BME280;72192;52.114;5.424;2024-02-26T06:29:30;100395.59;;;4.52;100.00
81125;BME280;72192;52.114;5.424;2024-02-26T06:31:57;100399.16;;;4.52;100.00
81125;BME280;72192;52.114;5.424;2024-02-26T06:34:24;100398.28;;;4.52;100.00
81125;BME280;72192;52.114;5.424;2024-02-26T06:36:51;100409.84;;;4.52;100.00
81125;BME280;72192;52.114;5.424;2024-02-26T06:39:18;100402.66;;;4.53;100.00
81125;BME280;72192;52.114;5.424;2024-02-26T06:41:46;100411.38;;;4.55;100.00
81125;BME280;72192;52.114;5.424;2024-02-26T06:44:13;100412.22;;;4.55;100.00
81125;BME280;72192;52.114;5.424;2024-02-26T06:46:40;100413.34;;;4.53;100.00
81125;BME280;72192;52.114;5.424;2024-02-26T06:49:10;100427.41;;;4.55;100.00
81125;BME280;72192;52.114;5.424;2024-02-26T06:51:43;100423.75;;;4.56;100.00
81125;BME280;72192;52.114;5.424;2024-02-26T06:54:10;100428.97;;;4.57;100.00
81125;BME280;72192;52.114;5.424;2024-02-26T06:56:37;100427.28;;;4.56;100.00
81125;BME280;72192;52.114;5.424;2024-02-26T06:59:04;100434.03;;;4.60;100.00
81125;BME280;72192;52.114;5.424;2024-02-26T07:01:31;100430.50;;;4.60;100.00
81125;BME280;72192;52.114;5.424;2024-02-26T07:03:58;100425.31;;;4.58;100.00
81125;BME280;72192;52.114;5.424;2024-02-26T07:06:29;100438.28;;;4.63;100.00
81125;BME280;72192;52.114;5.424;2024-02-26T07:08:56;100445.31;;;4.64;100.00
81125;BME280;72192;52.114;5.424;2024-02-26T07:11:25;100447.16;;;4.64;100.00
81125;BME280;72192;52.114;5.424;2024-02-26T07:13:52;100447.84;;;4.66;100.00
81125;BME280;72192;52.114;5.424;2024-02-26T07:16:19;100457.69;;;4.65;100.00
81125;BME280;72192;52.114;5.424;2024-02-26T07:18:46;100448.25;;;4.61;100.00
81125;BME280;72192;52.114;5.424;2024-02-26T07:21:14;100462.06;;;4.66;100.00
81125;BME280;72192;52.114;5.424;2024-02-26T07:23:41;100463.75;;;4.67;100.00
81125;BME280;72192;52.114;5.424;2024-02-26T07:26:08;100466.16;;;4.70;100.00
81125;BME280;72192;52.114;5.424;2024-02-26T07:28:35;100467.13;;;4.69;100.00
81125;BME280;72192;52.114;5.424;2024-02-26T07:31:03;100472.63;;;4.68;100.00
81125;BME280;72192;52.114;5.424;2024-02-26T07:33:30;100470.50;;;4.71;100.00
81125;BME280;72192;52.114;5.424;2024-02-26T07:35:57;100474.03;;;4.72;100.00
81125;BME280;72192;52.114;5.424;2024-02-26T07:38:24;100473.91;;;4.73;100.00
81125;BME280;72192;52.114;5.424;2024-02-26T07:41:07;100471.25;;;4.73;100.00
81125;BME280;72192;52.114;5.424;2024-02-26T07:43:35;100477.44;;;4.74;100.00
81125;BME280;72192;52.114;5.424;2024-02-26T07:46:02;100478.28;;;4.74;100.00
81125;BME280;72192;52.114;5.424;2024-02-26T07:48:29;100490.66;;;4.75;100.00
81125;BME280;72192;52.114;5.424;2024-02-26T07:50:57;100488.97;;;4.74;100.00
81125;BME280;72192;52.114;5.424;2024-02-26T07:53:39;100489.97;;;4.73;100.00
81125;BME280;72192;52.114;5.424;2024-02-26T07:56:07;100496.28;;;4.72;100.00
81125;BME280;72192;52.114;5.424;2024-02-26T07:58:34;100504.88;;;4.76;100.00
81125;BME280;72192;52.114;5.424;2024-02-26T08:01:01;100503.75;;;4.78;100.00
81125;BME280;72192;52.114;5.424;2024-02-26T08:03:29;100507.41;;;4.77;100.00
81125;BME280;72192;52.114;5.424;2024-02-26T08:06:04;100519.66;;;4.80;100.00
81125;BME280;72192;52.114;5.424;2024-02-26T08:08:45;100511.66;;;4.80;100.00
81125;BME280;72192;52.114;5.424;2024-02-26T08:11:19;100504.88;;;4.76;100.00
81125;BME280;72192;52.114;5.424;2024-02-26T08:13:46;100528.16;;;4.85;100.00
81125;BME280;72192;52.114;5.424;2024-02-26T08:16:13;100517.59;;;4.83;100.00
81125;BME280;72192;52.114;5.424;2024-02-26T08:18:47;100527.31;;;4.84;100.00
81125;BME280;72192;52.114;5.424;2024-02-26T08:21:14;100530.69;;;4.86;100.00
81125;BME280;72192;52.114;5.424;2024-02-26T08:23:43;100531.00;;;4.93;100.00
81125;BME280;72192;52.114;5.424;2024-02-26T08:26:21;100535.22;;;4.96;100.00
81125;BME280;72192;52.114;5.424;2024-02-26T08:28:50;100533.53;;;4.95;100.00
81125;BME280;72192;52.114;5.424;2024-02-26T08:31:21;100545.22;;;4.94;100.00
81125;BME280;72192;52.114;5.424;2024-02-26T08:33:51;100534.91;;;4.89;100.00
81125;BME280;72192;52.114;5.424;2024-02-26T08:36:18;100550.44;;;4.95;100.00
81125;BME280;72192;52.114;5.424;2024-02-26T08:38:46;100550.44;;;4.95;100.00
81125;BME280;72192;52.114;5.424;2024-02-26T08:41:15;100544.22;;;4.95;100.00
81125;BME280;72192;52.114;5.424;2024-02-26T08:43:41;100549.72;;;4.93;100.00
81125;BME280;72192;52.114;5.424;2024-02-26T08:46:09;100556.63;;;4.96;100.00
81125;BME280;72192;52.114;5.424;2024-02-26T08:48:39;100552.25;;;4.95;100.00
81125;BME280;72192;52.114;5.424;2024-02-26T08:51:07;100561.84;;;4.97;100.00
81125;BME280;72192;52.114;5.424;2024-02-26T08:53:35;100564.50;;;4.97;100.00
81125;BME280;72192;52.114;5.424;2024-02-26T08:56:10;100568.16;;;4.96;100.00
81125;BME280;72192;52.114;5.424;2024-02-26T08:58:45;100570.97;;;4.95;100.00
81125;BME280;72192;52.114;5.424;2024-02-26T09:07:05;100547.94;;;4.73;100.00
81125;BME280;72192;52.114;5.424;2024-02-26T09:09:36;100551.47;;;4.73;100.00
81125;BME280;72192;52.114;5.424;2024-02-26T09:12:04;100593.50;;;4.92;100.00
81125;BME280;72192;52.114;5.424;2024-02-26T09:14:38;100596.19;;;4.92;100.00
81125;BME280;72192;52.114;5.424;2024-02-26T09:17:08;100569.78;;;4.78;100.00
81125;BME280;72192;52.114;5.424;2024-02-26T09:19:38;100584.31;;;4.85;100.00
81125;BME280;72192;52.114;5.424;2024-02-26T09:22:06;100587.28;;;4.92;100.00
81125;BME280;72192;52.114;5.424;2024-02-26T09:24:38;100584.44;;;4.83;100.00
81125;BME280;72192;52.114;5.424;2024-02-26T09:27:07;100601.19;;;4.85;100.00
81125;BME280;72192;52.114;5.424;2024-02-26T09:29:38;100606.28;;;4.88;100.00
81125;BME280;72192;52.114;5.424;2024-02-26T09:32:06;100601.91;;;4.87;100.00
81125;BME280;72192;52.114;5.424;2024-02-26T09:34:40;100614.03;;;4.92;100.00
81125;BME280;72192;52.114;5.424;2024-02-26T09:37:11;100602.06;;;4.86;100.00
81125;BME280;72192;52.114;5.424;2024-02-26T09:39:47;100624.72;;;4.92;100.00
81125;BME280;72192;52.114;5.424;2024-02-26T09:44:45;100622.03;;;4.92;100.00
81125;BME280;72192;52.114;5.424;2024-02-26T09:47:23;100626.16;;;4.96;100.00
81125;BME280;72192;52.114;5.424;2024-02-26T09:49:56;100621.63;;;4.86;100.00
81125;BME280;72192;52.114;5.424;2024-02-26T09:52:25;100632.50;;;4.95;100.00
81125;BME280;72192;52.114;5.424;2024-02-26T09:54:55;100634.91;;;4.98;100.00
81125;BME280;72192;52.114;5.424;2024-02-26T09:57:26;100630.53;;;4.97;100.00
81125;BME280;72192;52.114;5.424;2024-02-26T09:59:53;100641.94;;;4.99;100.00
81125;BME280;72192;52.114;5.424;2024-02-26T10:02:26;100638.28;;;5.00;100.00
81125;BME280;72192;52.114;5.424;2024-02-26T10:07:25;100646.06;;;5.03;100.00
81125;BME280;72192;52.114;5.424;2024-02-26T10:09:52;100659.88;;;5.08;100.00
81125;BME280;72192;52.114;5.424;2024-02-26T10:12:19;100637.25;;;4.91;100.00
81125;BME280;72192;52.114;5.424;2024-02-26T10:14:47;100661.78;;;4.96;100.00
81125;BME280;72192;52.114;5.424;2024-02-26T10:17:15;100662.16;;;4.92;100.00
81125;BME280;72192;52.114;5.424;2024-02-26T10:19:42;100674.31;;;4.96;100.00
81125;BME280;72192;52.114;5.424;2024-02-26T10:22:09;100662.63;;;4.97;100.00
81125;BME280;72192;52.114;5.424;2024-02-26T10:24:36;100680.25;;;4.99;100.00
81125;BME280;72192;52.114;5.424;2024-02-26T10:27:04;100690.38;;;4.96;100.00
81125;BME280;72192;52.114;5.424;2024-02-26T10:29:34;100668.50;;;4.90;100.00
81125;BME280;72192;52.114;5.424;2024-02-26T10:32:01;100697.97;;;5.00;100.00
81125;BME280;72192;52.114;5.424;2024-02-26T10:34:28;100692.53;;;5.02;100.00
81125;BME280;72192;52.114;5.424;2024-02-26T10:36:56;100692.63;;;5.00;100.00
81125;BME280;72192;52.114;5.424;2024-02-26T10:39:23;100702.53;;;5.09;100.00
81125;BME280;72192;52.114;5.424;2024-02-26T10:41:50;100713.84;;;5.13;100.00
81125;BME280;72192;52.114;5.424;2024-02-26T10:44:18;100711.03;;;5.14;100.00
81125;BME280;72192;52.114;5.424;2024-02-26T10:46:49;100718.09;;;5.15;100.00
81125;BME280;72192;52.114;5.424;2024-02-26T10:49:17;100716.97;;;5.18;100.00
81125;BME280;72192;52.114;5.424;2024-02-26T10:51:54;100722.78;;;5.23;100.00
81125;BME280;72192;52.114;5.424;2024-02-26T10:54:26;100723.78;;;5.22;100.00
81125;BME280;72192;52.114;5.424;2024-02-26T10:56:56;100734.06;;;5.27;100.00
81125;BME280;72192;52.114;5.424;2024-02-26T10:59:26;100722.78;;;5.23;100.00
81125;BME280;72192;52.114;5.424;2024-02-26T11:02:00;100728.84;;;5.25;100.00
81125;BME280;72192;52.114;5.424;2024-02-26T11:04:29;100741.31;;;5.36;100.00
81125;BME280;72192;52.114;5.424;2024-02-26T11:06:57;100747.22;;;5.39;100.00
81125;BME280;72192;52.114;5.424;2024-02-26T11:09:25;100742.00;;;5.38;100.00
81125;BME280;72192;52.114;5.424;2024-02-26T11:11:56;100754.16;;;5.42;100.00
81125;BME280;72192;52.114;5.424;2024-02-26T11:14:26;100742.72;;;5.40;100.00
81125;BME280;72192;52.114;5.424;2024-02-26T11:16:57;100756.22;;;5.38;100.00
81125;BME280;72192;52.114;5.424;2024-02-26T11:19:24;100762.06;;;5.43;100.00
81125;BME280;72192;52.114;5.424;2024-02-26T11:21:56;100756.44;;;5.46;100.00
81125;BME280;72192;52.114;5.424;2024-02-26T11:24:25;100769.94;;;5.45;100.00
81125;BME280;72192;52.114;5.424;2024-02-26T11:26:59;100764.47;;;5.46;100.00
81125;BME280;72192;52.114;5.424;2024-02-26T11:29:34;100760.22;;;5.44;100.00
81125;BME280;72192;52.114;5.424;2024-02-26T11:32:06;100766.56;;;5.43;100.00
81125;BME280;72192;52.114;5.424;2024-02-26T11:34:33;100774.00;;;5.39;100.00
81125;BME280;72192;52.114;5.424;2024-02-26T11:37:12;100779.63;;;5.36;100.00
81125;BME280;72192;52.114;5.424;2024-02-26T11:39:41;100778.91;;;5.34;100.00
81125;BME280;72192;52.114;5.424;2024-02-26T11:42:09;100786.81;;;5.36;100.00
81125;BME280;72192;52.114;5.424;2024-02-26T11:44:36;100788.78;;;5.34;100.00
81125;BME280;72192;52.114;5.424;2024-02-26T11:47:17;100784.63;;;5.30;100.00
81125;BME280;72192;52.114;5.424;2024-02-26T11:49:46;100789.00;;;5.31;100.00
81125;BME280;72192;52.114;5.424;2024-02-26T11:52:14;100790.13;;;5.28;100.00
81125;BME280;72192;52.114;5.424;2024-02-26T11:57:37;100805.88;;;5.42;100.00
81125;BME280;72192;52.114;5.424;2024-02-26T12:00:13;100809.97;;;5.46;100.00
81125;BME280;72192;52.114;5.424;2024-02-26T12:02:47;100803.06;;;5.44;100.00
81125;BME280;72192;52.114;5.424;2024-02-26T12:05:20;100810.69;;;5.48;100.00
81125;BME280;72192;52.114;5.424;2024-02-26T12:08:02;100816.09;;;5.58;100.00
81125;BME280;72192;52.114;5.424;2024-02-26T12:10:38;100816.94;;;5.59;100.00
81125;BME280;72192;52.114;5.424;2024-02-26T12:13:12;100821.91;;;5.63;100.00
81125;BME280;72192;52.114;5.424;2024-02-26T12:15:56;100824.66;;;5.73;100.00
81125;BME280;72192;52.114;5.424;2024-02-26T12:21:03;100788.28;;;5.50;100.00
81125;BME280;72192;52.114;5.424;2024-02-26T12:23:34;100821.06;;;5.63;100.00
81125;BME280;72192;52.114;5.424;2024-02-26T12:26:01;100831.66;;;5.64;100.00
81125;BME280;72192;52.114;5.424;2024-02-26T12:31:07;100806.91;;;5.51;100.00
81125;BME280;72192;52.114;5.424;2024-02-26T12:33:35;100827.94;;;5.56;100.00
81125;BME280;72192;52.114;5.424;2024-02-26T12:36:03;100827.78;;;5.57;100.00
81125;BME280;72192;52.114;5.424;2024-02-26T12:38:34;100830.16;;;5.51;100.00
81125;BME280;72192;52.114;5.424;2024-02-26T12:41:14;100839.94;;;5.61;100.00
81125;BME280;72192;52.114;5.424;2024-02-26T12:48:56;100832.56;;;5.54;100.00
81125;BME280;72192;52.114;5.424;2024-02-26T12:51:27;100838.78;;;5.54;100.00
81125;BME280;72192;52.114;5.424;2024-02-26T12:53:56;100860.25;;;5.64;100.00
81125;BME280;72192;52.114;5.424;2024-02-26T12:56:25;100860.81;;;5.67;100.00
81125;BME280;72192;52.114;5.424;2024-02-26T12:58:54;100862.66;;;5.67;100.00
81125;BME280;72192;52.114;5.424;2024-02-26T13:01:23;100862.66;;;5.67;100.00
81125;BME280;72192;52.114;5.424;2024-02-26T13:09:30;100878.22;;;5.73;100.00
81125;BME280;72192;52.114;5.424;2024-02-26T13:12:05;100877.75;;;5.68;100.00
81125;BME280;72192;52.114;5.424;2024-02-26T13:14:33;100883.94;;;5.68;100.00
81125;BME280;72192;52.114;5.424;2024-02-26T13:17:02;100880.22;;;5.60;100.00
81125;BME280;72192;52.114;5.424;2024-02-26T13:19:30;100894.22;;;5.63;100.00
81125;BME280;72192;52.114;5.424;2024-02-26T13:22:07;100889.44;;;5.67;100.00
81125;BME280;72192;52.114;5.424;2024-02-26T13:24:35;100895.41;;;5.70;100.00
81125;BME280;72192;52.114;5.424;2024-02-26T13:27:03;100886.19;;;5.63;100.00
81125;BME280;72192;52.114;5.424;2024-02-26T13:29:33;100902.97;;;5.65;100.00